sensor_id;sensor_type;location;lat;lon;timestamp;pressure;altitude;pressure_sealevel;temperature;humidity
40073;BME280;25774;52.256;9.356;2023-01-31T00:01:28;100890.72;;;3.58;100.00
40073;BME280;25774;52.256;9.356;2023-01-31T00:03:57;100889.13;;;3.49;100.00
40073;BME280;25774;52.256;9.356;2023-01-31T00:06:25;100914.13;;;3.61;100.00
40073;BME280;25774;52.256;9.356;2023-01-31T00:08:52;100922.94;;;3.54;100.00
40073;BME280;25774;52.256;9.356;2023-01-31T00:11:19;100934.91;;;3.66;100.00
40073;BME280;25774;52.256;9.356;2023-01-31T00:13:45;100932.81;;;3.38;100.00
40073;BME280;25774;52.256;9.356;2023-01-31T00:16:13;100937.25;;;3.32;100.00
40073;BME280;25774;52.256;9.356;2023-01-31T00:18:40;100949.13;;;3.49;100.00
40073;BME280;25774;52.256;9.356;2023-01-31T00:23:31;100943.44;;;3.76;100.00
40073;BME280;25774;52.256;9.356;2023-01-31T00:28:37;100932.34;;;3.64;100.00
40073;BME280;25774;52.256;9.356;2023-01-31T00:31:03;100928.16;;;3.54;100.00
40073;BME280;25774;52.256;9.356;2023-01-31T00:33:29;100927.28;;;3.55;100.00
40073;BME280;25774;52.256;9.356;2023-01-31T00:35:54;100928.09;;;3.59;100.00
40073;BME280;25774;52.256;9.356;2023-01-31T00:38:20;100921.34;;;3.48;100.00
40073;BME280;25774;52.256;9.356;2023-01-31T00:40:53;100924.69;;;3.55;100.00
40073;BME280;25774;52.256;9.356;2023-01-31T00:43:20;100928.94;;;3.59;100.00
40073;BME280;25774;52.256;9.356;2023-01-31T00:45:49;100938.16;;;3.79;100.00
40073;BME280;25774;52.256;9.356;2023-01-31T00:48:14;100941.78;;;3.71;100.00
40073;BME280;25774;52.256;9.356;2023-01-31T00:50:41;100936.50;;;3.75;100.00
40073;BME280;25774;52.256;9.356;2023-01-31T00:53:06;100951.72;;;3.99;100.00
40073;BME280;25774;52.256;9.356;2023-01-31T00:55:31;100950.25;;;3.84;100.00
40073;BME280;25774;52.256;9.356;2023-01-31T00:57:56;100946.03;;;3.77;100.00
40073;BME280;25774;52.256;9.356;2023-01-31T01:00:26;100947.91;;;3.70;100.00
40073;BME280;25774;52.256;9.356;2023-01-31T01:02:51;100950.41;;;3.75;100.00
40073;BME280;25774;52.256;9.356;2023-01-31T01:05:17;100960.44;;;3.98;100.00
40073;BME280;25774;52.256;9.356;2023-01-31T01:07:42;100966.50;;;3.99;100.00
40073;BME280;25774;52.256;9.356;2023-01-31T01:10:08;100944.91;;;3.90;100.00
40073;BME280;25774;52.256;9.356;2023-01-31T01:12:34;100960.38;;;4.01;100.00
40073;BME280;25774;52.256;9.356;2023-01-31T01:14:59;100946.66;;;3.90;100.00
40073;BME280;25774;52.256;9.356;2023-01-31T01:17:24;100962.34;;;3.88;100.00
40073;BME280;25774;52.256;9.356;2023-01-31T01:19:51;100959.41;;;4.07;100.00
40073;BME280;25774;52.256;9.356;2023-01-31T01:22:16;100960.41;;;4.00;100.00
40073;BME280;25774;52.256;9.356;2023-01-31T01:24:42;100978.63;;;4.03;100.00
40073;BME280;25774;52.256;9.356;2023-01-31T01:27:08;100974.09;;;4.11;100.00
40073;BME280;25774;52.256;9.356;2023-01-31T01:29:33;100975.81;;;4.13;100.00
40073;BME280;25774;52.256;9.356;2023-01-31T01:31:59;100966.81;;;3.82;100.00
40073;BME280;25774;52.256;9.356;2023-01-31T01:34:25;100980.72;;;3.84;100.00
40073;BME280;25774;52.256;9.356;2023-01-31T01:36:50;100991.22;;;3.81;100.00
40073;BME280;25774;52.256;9.356;2023-01-31T01:39:16;100997.09;;;3.92;100.00
40073;BME280;25774;52.256;9.356;2023-01-31T01:41:44;100997.66;;;3.60;100.00
40073;BME280;25774;52.256;9.356;2023-01-31T01:44:45;101005.44;;;3.63;100.00
40073;BME280;25774;52.256;9.356;2023-01-31T01:49:51;101011.56;;;3.62;100.00
40073;BME280;25774;52.256;9.356;2023-01-31T01:52:18;101029.88;;;3.57;100.00
40073;BME280;25774;52.256;9.356;2023-01-31T01:54:59;101037.50;;;3.71;100.00
40073;BME280;25774;52.256;9.356;2023-01-31T01:57:31;101058.97;;;3.88;100.00
40073;BME280;25774;52.256;9.356;2023-01-31T02:02:35;101043.59;;;3.70;100.00
40073;BME280;25774;52.256;9.356;2023-01-31T02:05:04;101047.75;;;3.83;100.00
40073;BME280;25774;52.256;9.356;2023-01-31T02:07:31;101065.19;;;3.80;100.00
40073;BME280;25774;52.256;9.356;2023-01-31T02:10:04;101060.34;;;4.08;100.00
40073;BME280;25774;52.256;9.356;2023-01-31T02:12:32;101058.31;;;3.76;100.00
40073;BME280;25774;52.256;9.356;2023-01-31T02:14:58;101054.59;;;3.90;100.00
40073;BME280;25774;52.256;9.356;2023-01-31T02:17:23;101043.69;;;3.65;100.00
40073;BME280;25774;52.256;9.356;2023-01-31T02:20:01;101050.47;;;3.77;100.00
40073;BME280;25774;52.256;9.356;2023-01-31T02:23:05;101029.75;;;3.66;100.00
40073;BME280;25774;52.256;9.356;2023-01-31T02:25:47;101035.06;;;3.62;100.00
40073;BME280;25774;52.256;9.356;2023-01-31T02:31:24;101034.19;;;3.61;100.00
40073;BME280;25774;52.256;9.356;2023-01-31T02:38:51;101019.34;;;3.63;100.00
40073;BME280;25774;52.256;9.356;2023-01-31T02:41:30;101028.94;;;3.64;100.00
40073;BME280;25774;52.256;9.356;2023-01-31T02:44:19;101030.19;;;3.91;100.00
40073;BME280;25774;52.256;9.356;2023-01-31T02:47:30;101015.03;;;3.64;100.00
40073;BME280;25774;52.256;9.356;2023-01-31T02:50:24;101009.09;;;3.53;100.00
40073;BME280;25774;52.256;9.356;2023-01-31T02:52:57;101017.72;;;3.58;100.00
40073;BME280;25774;52.256;9.356;2023-01-31T02:55:31;101027.31;;;3.54;100.00
40073;BME280;25774;52.256;9.356;2023-01-31T02:58:18;101012.84;;;3.36;100.00
40073;BME280;25774;52.256;9.356;2023-01-31T03:00:46;101006.59;;;3.46;100.00
40073;BME280;25774;52.256;9.356;2023-01-31T03:03:24;101022.06;;;3.57;100.00
40073;BME280;25774;52.256;9.356;2023-01-31T03:06:09;101016.19;;;3.44;100.00
40073;BME280;25774;52.256;9.356;2023-01-31T03:08:36;101028.22;;;3.55;100.00
40073;BME280;25774;52.256;9.356;2023-01-31T03:11:04;101009.91;;;3.56;100.00
40073;BME280;25774;52.256;9.356;2023-01-31T03:16:17;101012.47;;;3.61;100.00
40073;BME280;25774;52.256;9.356;2023-01-31T03:22:05;100991.06;;;3.39;100.00
40073;BME280;25774;52.256;9.356;2023-01-31T03:24:33;100996.41;;;3.31;100.00
40073;BME280;25774;52.256;9.356;2023-01-31T03:27:03;101006.78;;;3.34;100.00
40073;BME280;25774;52.256;9.356;2023-01-31T03:29:31;100996.25;;;3.40;100.00
40073;BME280;25774;52.256;9.356;2023-01-31T03:32:03;100979.00;;;3.32;100.00
40073;BME280;25774;52.256;9.356;2023-01-31T03:34:30;100989.59;;;3.22;100.00
40073;BME280;25774;52.256;9.356;2023-01-31T03:37:11;100992.97;;;3.29;100.00
40073;BME280;25774;52.256;9.356;2023-01-31T03:42:44;100990.94;;;3.48;100.00
40073;BME280;25774;52.256;9.356;2023-01-31T03:45:18;100984.72;;;3.55;100.00
40073;BME280;25774;52.256;9.356;2023-01-31T03:47:48;100990.19;;;3.40;100.00
40073;BME280;25774;52.256;9.356;2023-01-31T03:50:30;100988.06;;;3.62;100.00
40073;BME280;25774;52.256;9.356;2023-01-31T03:52:59;100985.50;;;3.59;100.00
40073;BME280;25774;52.256;9.356;2023-01-31T03:55:53;100994.16;;;3.62;100.00
40073;BME280;25774;52.256;9.356;2023-01-31T03:58:25;100996.56;;;3.73;100.00
40073;BME280;25774;52.256;9.356;2023-01-31T04:00:56;100992.41;;;3.63;100.00
40073;BME280;25774;52.256;9.356;2023-01-31T04:03:28;100978.44;;;3.65;100.00
40073;BME280;25774;52.256;9.356;2023-01-31T04:05:56;100983.88;;;3.53;100.00
40073;BME280;25774;52.256;9.356;2023-01-31T04:08:21;100969.22;;;3.44;100.00
40073;BME280;25774;52.256;9.356;2023-01-31T04:10:47;100971.75;;;3.49;100.00
40073;BME280;25774;52.256;9.356;2023-01-31T04:13:12;100962.38;;;3.37;100.00
40073;BME280;25774;52.256;9.356;2023-01-31T04:15:37;100973.00;;;3.26;100.00
40073;BME280;25774;52.256;9.356;2023-01-31T04:18:03;100972.09;;;3.29;100.00
40073;BME280;25774;52.256;9.356;2023-01-31T04:20:28;100977.81;;;3.51;100.00
40073;BME280;25774;52.256;9.356;2023-01-31T04:22:54;100974.66;;;3.32;100.00
40073;BME280;25774;52.256;9.356;2023-01-31T04:25:20;100970.66;;;3.10;100.00
40073;BME280;25774;52.256;9.356;2023-01-31T04:27:45;100968.88;;;3.13;100.00
40073;BME280;25774;52.256;9.356;2023-01-31T04:30:11;100968.03;;;3.11;100.00
40073;BME280;25774;52.256;9.356;2023-01-31T04:32:36;100962.97;;;3.00;100.00
40073;BME280;25774;52.256;9.356;2023-01-31T04:35:02;100968.84;;;3.15;100.00
40073;BME280;25774;52.256;9.356;2023-01-31T04:37:27;100958.44;;;3.13;100.00
40073;BME280;25774;52.256;9.356;2023-01-31T04:39:52;100946.25;;;3.12;100.00
40073;BME280;25774;52.256;9.356;2023-01-31T04:42:18;100947.25;;;3.07;100.00
40073;BME280;25774;52.256;9.356;2023-01-31T04:44:43;100949.94;;;2.99;100.00
40073;BME280;25774;52.256;9.356;2023-01-31T04:47:08;100949.72;;;3.14;100.00
40073;BME280;25774;52.256;9.356;2023-01-31T04:49:34;100945.38;;;3.15;100.00
40073;BME280;25774;52.256;9.356;2023-01-31T04:51:59;100939.25;;;3.16;100.00
40073;BME280;25774;52.256;9.356;2023-01-31T04:54:24;100942.91;;;3.06;100.00
40073;BME280;25774;52.256;9.356;2023-01-31T04:56:50;100954.78;;;3.23;100.00
40073;BME280;25774;52.256;9.356;2023-01-31T04:59:15;100953.31;;;3.07;100.00
40073;BME280;25774;52.256;9.356;2023-01-31T05:01:41;100952.94;;;3.29;100.00
40073;BME280;25774;52.256;9.356;2023-01-31T05:04:07;100944.47;;;3.17;100.00
40073;BME280;25774;52.256;9.356;2023-01-31T05:06:33;100947.97;;;3.16;100.00
40073;BME280;25774;52.256;9.356;2023-01-31T05:09:01;100951.16;;;3.34;100.00
40073;BME280;25774;52.256;9.356;2023-01-31T05:11:27;100943.50;;;3.21;100.00
40073;BME280;25774;52.256;9.356;2023-01-31T05:13:54;100952.25;;;3.19;100.00
40073;BME280;25774;52.256;9.356;2023-01-31T05:16:19;100945.16;;;3.27;100.00
40073;BME280;25774;52.256;9.356;2023-01-31T05:18:44;100942.47;;;3.33;100.00
40073;BME280;25774;52.256;9.356;2023-01-31T05:21:11;100947.44;;;3.47;100.00
40073;BME280;25774;52.256;9.356;2023-01-31T05:23:36;100943.41;;;3.29;100.00
40073;BME280;25774;52.256;9.356;2023-01-31T05:26:02;100930.38;;;3.28;100.00
40073;BME280;25774;52.256;9.356;2023-01-31T05:28:27;100932.16;;;3.25;100.00
40073;BME280;25774;52.256;9.356;2023-01-31T05:30:53;100940.50;;;3.46;100.00
40073;BME280;25774;52.256;9.356;2023-01-31T05:33:25;100929.13;;;3.50;100.00
40073;BME280;25774;52.256;9.356;2023-01-31T05:35:52;100917.97;;;3.42;100.00
40073;BME280;25774;52.256;9.356;2023-01-31T05:38:17;100934.91;;;3.66;100.00
40073;BME280;25774;52.256;9.356;2023-01-31T05:40:42;100925.66;;;3.49;100.00
40073;BME280;25774;52.256;9.356;2023-01-31T05:43:08;100916.06;;;3.50;100.00
40073;BME280;25774;52.256;9.356;2023-01-31T05:45:33;100920.38;;;3.53;100.00
40073;BME280;25774;52.256;9.356;2023-01-31T05:47:59;100919.25;;;3.67;100.00
40073;BME280;25774;52.256;9.356;2023-01-31T05:50:26;100908.22;;;3.52;100.00
40073;BME280;25774;52.256;9.356;2023-01-31T05:52:53;100908.81;;;3.67;100.00
40073;BME280;25774;52.256;9.356;2023-01-31T05:55:20;100902.00;;;3.59;100.00
40073;BME280;25774;52.256;9.356;2023-01-31T05:57:45;100903.75;;;3.57;100.00
40073;BME280;25774;52.256;9.356;2023-01-31T06:00:11;100895.88;;;3.60;100.00
40073;BME280;25774;52.256;9.356;2023-01-31T06:02:44;100890.94;;;3.91;100.00
40073;BME280;25774;52.256;9.356;2023-01-31T06:05:10;100862.78;;;3.62;100.00
40073;BME280;25774;52.256;9.356;2023-01-31T06:07:36;100870.91;;;3.48;100.00
40073;BME280;25774;52.256;9.356;2023-01-31T06:10:04;100872.94;;;3.77;100.00
40073;BME280;25774;52.256;9.356;2023-01-31T06:12:29;100857.56;;;3.62;100.00
40073;BME280;25774;52.256;9.356;2023-01-31T06:14:55;100871.25;;;3.75;100.00
40073;BME280;25774;52.256;9.356;2023-01-31T06:17:21;100865.22;;;3.71;100.00
40073;BME280;25774;52.256;9.356;2023-01-31T06:19:48;100862.00;;;3.58;100.00
40073;BME280;25774;52.256;9.356;2023-01-31T06:22:13;100861.03;;;3.62;100.00
40073;BME280;25774;52.256;9.356;2023-01-31T06:24:39;100885.72;;;3.91;100.00
40073;BME280;25774;52.256;9.356;2023-01-31T06:27:04;100872.09;;;3.77;100.00
40073;BME280;25774;52.256;9.356;2023-01-31T06:29:30;100866.81;;;3.78;100.00
40073;BME280;25774;52.256;9.356;2023-01-31T06:31:56;100854.69;;;3.76;100.00
40073;BME280;25774;52.256;9.356;2023-01-31T06:34:21;100876.28;;;4.26;100.00
40073;BME280;25774;52.256;9.356;2023-01-31T06:36:46;100859.34;;;4.03;100.00
40073;BME280;25774;52.256;9.356;2023-01-31T06:39:14;100860.41;;;3.94;100.00
40073;BME280;25774;52.256;9.356;2023-01-31T06:41:39;100855.03;;;4.01;100.00
40073;BME280;25774;52.256;9.356;2023-01-31T06:44:06;100856.75;;;4.03;100.00
40073;BME280;25774;52.256;9.356;2023-01-31T06:46:32;100850.78;;;3.96;100.00
40073;BME280;25774;52.256;9.356;2023-01-31T06:48:58;100864.81;;;4.33;100.00
40073;BME280;25774;52.256;9.356;2023-01-31T06:51:23;100870.09;;;4.30;100.00
40073;BME280;25774;52.256;9.356;2023-01-31T06:53:49;100848.59;;;4.18;100.00
40073;BME280;25774;52.256;9.356;2023-01-31T06:56:17;100851.41;;;4.08;100.00
40073;BME280;25774;52.256;9.356;2023-01-31T06:58:43;100849.59;;;4.11;100.00
40073;BME280;25774;52.256;9.356;2023-01-31T07:01:10;100858.84;;;4.26;100.00
40073;BME280;25774;52.256;9.356;2023-01-31T07:03:36;100841.97;;;4.02;100.00
40073;BME280;25774;52.256;9.356;2023-01-31T07:06:02;100844.34;;;4.11;100.00
40073;BME280;25774;52.256;9.356;2023-01-31T07:08:29;100841.81;;;4.08;100.00
40073;BME280;25774;52.256;9.356;2023-01-31T07:10:55;100838.34;;;4.09;100.00
40073;BME280;25774;52.256;9.356;2023-01-31T07:13:20;100845.13;;;4.16;100.00
40073;BME280;25774;52.256;9.356;2023-01-31T07:15:46;100830.31;;;4.18;100.00
40073;BME280;25774;52.256;9.356;2023-01-31T07:18:11;100831.09;;;4.20;100.00
40073;BME280;25774;52.256;9.356;2023-01-31T07:20:41;100816.41;;;4.16;100.00
40073;BME280;25774;52.256;9.356;2023-01-31T07:23:07;100823.84;;;4.35;100.00
40073;BME280;25774;52.256;9.356;2023-01-31T07:25:34;100815.28;;;4.27;100.00
40073;BME280;25774;52.256;9.356;2023-01-31T07:28:00;100809.94;;;4.33;100.00
40073;BME280;25774;52.256;9.356;2023-01-31T07:30:26;100814.13;;;4.40;100.00
40073;BME280;25774;52.256;9.356;2023-01-31T07:32:52;100797.50;;;4.42;100.00
40073;BME280;25774;52.256;9.356;2023-01-31T07:35:18;100793.97;;;4.45;100.00
40073;BME280;25774;52.256;9.356;2023-01-31T07:37:44;100788.88;;;4.40;100.00
40073;BME280;25774;52.256;9.356;2023-01-31T07:40:16;100787.88;;;4.45;100.00
40073;BME280;25774;52.256;9.356;2023-01-31T07:42:41;100782.03;;;4.35;100.00
40073;BME280;25774;52.256;9.356;2023-01-31T07:45:10;100780.97;;;4.42;100.00
40073;BME280;25774;52.256;9.356;2023-01-31T07:47:36;100780.75;;;4.51;100.00
40073;BME280;25774;52.256;9.356;2023-01-31T07:50:02;100772.16;;;4.46;100.00
40073;BME280;25774;52.256;9.356;2023-01-31T07:52:27;100761.19;;;4.68;100.00
40073;BME280;25774;52.256;9.356;2023-01-31T07:54:52;100755.28;;;4.59;100.00
40073;BME280;25774;52.256;9.356;2023-01-31T07:57:18;100766.25;;;4.74;100.00
40073;BME280;25774;52.256;9.356;2023-01-31T07:59:44;100758.09;;;4.86;100.00
40073;BME280;25774;52.256;9.356;2023-01-31T08:02:14;100743.06;;;4.94;100.00
40073;BME280;25774;52.256;9.356;2023-01-31T08:04:59;100720.03;;;4.76;100.00
40073;BME280;25774;52.256;9.356;2023-01-31T08:07:25;100726.41;;;4.98;100.00
40073;BME280;25774;52.256;9.356;2023-01-31T08:09:51;100720.34;;;4.96;100.00
40073;BME280;25774;52.256;9.356;2023-01-31T08:12:17;100712.09;;;4.79;100.00
40073;BME280;25774;52.256;9.356;2023-01-31T08:14:42;100709.22;;;4.88;100.00
40073;BME280;25774;52.256;9.356;2023-01-31T08:17:09;100691.38;;;4.71;100.00
40073;BME280;25774;52.256;9.356;2023-01-31T08:19:34;100698.66;;;4.91;100.00
40073;BME280;25774;52.256;9.356;2023-01-31T08:22:00;100694.13;;;4.98;100.00
40073;BME280;25774;52.256;9.356;2023-01-31T08:24:26;100683.59;;;5.01;100.00
40073;BME280;25774;52.256;9.356;2023-01-31T08:26:51;100682.66;;;5.03;100.00
40073;BME280;25774;52.256;9.356;2023-01-31T08:29:18;100657.75;;;4.90;100.00
40073;BME280;25774;52.256;9.356;2023-01-31T08:31:43;100654.88;;;4.99;100.00
40073;BME280;25774;52.256;9.356;2023-01-31T08:34:09;100654.69;;;5.05;100.00
40073;BME280;25774;52.256;9.356;2023-01-31T08:36:35;100660.47;;;5.17;100.00
40073;BME280;25774;52.256;9.356;2023-01-31T08:39:01;100657.06;;;5.15;100.00
40073;BME280;25774;52.256;9.356;2023-01-31T08:41:28;100658.22;;;5.34;100.00
40073;BME280;25774;52.256;9.356;2023-01-31T08:43:54;100645.59;;;5.19;100.00
40073;BME280;25774;52.256;9.356;2023-01-31T08:46:21;100642.53;;;5.34;100.00
40073;BME280;25774;52.256;9.356;2023-01-31T08:48:47;100642.38;;;5.39;100.00
40073;BME280;25774;52.256;9.356;2023-01-31T08:51:13;100653.50;;;5.47;100.00
40073;BME280;25774;52.256;9.356;2023-01-31T08:53:42;100632.00;;;5.35;100.00
40073;BME280;25774;52.256;9.356;2023-01-31T08:56:10;100623.38;;;5.32;100.00
40073;BME280;25774;52.256;9.356;2023-01-31T08:58:37;100609.44;;;5.33;100.00
40073;BME280;25774;52.256;9.356;2023-01-31T09:01:13;100634.22;;;5.49;100.00
40073;BME280;25774;52.256;9.356;2023-01-31T09:03:39;100625.09;;;5.61;100.00
40073;BME280;25774;52.256;9.356;2023-01-31T09:06:10;100604.88;;;5.38;100.00
40073;BME280;25774;52.256;9.356;2023-01-31T09:08:36;100595.38;;;5.35;100.00
40073;BME280;25774;52.256;9.356;2023-01-31T09:11:01;100602.28;;;5.38;100.00
40073;BME280;25774;52.256;9.356;2023-01-31T09:13:28;100590.38;;;5.28;100.00
40073;BME280;25774;52.256;9.356;2023-01-31T09:16:04;100593.19;;;5.22;100.00
40073;BME280;25774;52.256;9.356;2023-01-31T09:18:32;100585.75;;;5.08;100.00
40073;BME280;25774;52.256;9.356;2023-01-31T09:21:05;100604.28;;;5.30;100.00
40073;BME280;25774;52.256;9.356;2023-01-31T09:23:32;100610.34;;;5.01;100.00
40073;BME280;25774;52.256;9.356;2023-01-31T09:25:58;100613.50;;;4.82;100.00
40073;BME280;25774;52.256;9.356;2023-01-31T09:28:24;100624.41;;;4.98;100.00
40073;BME280;25774;52.256;9.356;2023-01-31T09:30:49;100617.25;;;4.74;100.00
40073;BME280;25774;52.256;9.356;2023-01-31T09:33:18;100611.34;;;4.65;100.00
40073;BME280;25774;52.256;9.356;2023-01-31T09:35:54;100624.25;;;4.72;100.00
40073;BME280;25774;52.256;9.356;2023-01-31T09:38:19;100622.34;;;4.46;100.00
40073;BME280;25774;52.256;9.356;2023-01-31T09:40:45;100636.19;;;4.49;100.00
40073;BME280;25774;52.256;9.356;2023-01-31T09:43:11;100652.47;;;4.60;100.00
40073;BME280;25774;52.256;9.356;2023-01-31T09:45:39;100648.69;;;4.38;100.00
40073;BME280;25774;52.256;9.356;2023-01-31T09:48:16;100652.84;;;4.45;100.00
40073;BME280;25774;52.256;9.356;2023-01-31T09:50:46;100638.47;;;4.61;100.00
40073;BME280;25774;52.256;9.356;2023-01-31T09:53:16;100640.25;;;4.61;100.00
40073;BME280;25774;52.256;9.356;2023-01-31T09:55:56;100626.94;;;4.70;100.00
40073;BME280;25774;52.256;9.356;2023-01-31T10:07:04;100654.91;;;4.66;100.00
40073;BME280;25774;52.256;9.356;2023-01-31T10:09:39;100666.59;;;4.84;100.00
40073;BME280;25774;52.256;9.356;2023-01-31T10:14:41;100663.38;;;4.75;100.00
40073;BME280;25774;52.256;9.356;2023-01-31T10:19:45;100665.66;;;4.88;100.00
40073;BME280;25774;52.256;9.356;2023-01-31T10:22:17;100642.00;;;4.60;100.00
40073;BME280;25774;52.256;9.356;2023-01-31T10:24:48;100634.09;;;4.62;100.00
40073;BME280;25774;52.256;9.356;2023-01-31T10:27:44;100642.19;;;4.85;100.00
40073;BME280;25774;52.256;9.356;2023-01-31T10:30:20;100638.63;;;4.88;100.00
40073;BME280;25774;52.256;9.356;2023-01-31T10:32:56;100626.03;;;5.01;100.00
40073;BME280;25774;52.256;9.356;2023-01-31T10:35:27;100625.88;;;5.07;100.00
40073;BME280;25774;52.256;9.356;2023-01-31T10:38:02;100614.72;;;5.00;100.00
40073;BME280;25774;52.256;9.356;2023-01-31T10:40:35;100610.00;;;4.83;100.00
40073;BME280;25774;52.256;9.356;2023-01-31T10:43:32;100603.56;;;5.25;100.00
40073;BME280;25774;52.256;9.356;2023-01-31T10:46:01;100608.59;;;5.31;100.00
40073;BME280;25774;52.256;9.356;2023-01-31T10:48:28;100592.53;;;5.13;100.00
40073;BME280;25774;52.256;9.356;2023-01-31T10:56:41;100553.44;;;5.09;100.00
40073;BME280;25774;52.256;9.356;2023-01-31T10:59:22;100553.44;;;5.09;100.00
40073;BME280;25774;52.256;9.356;2023-01-31T11:01:49;100548.94;;;5.14;100.00
40073;BME280;25774;52.256;9.356;2023-01-31T11:04:24;100548.28;;;5.07;100.00
40073;BME280;25774;52.256;9.356;2023-01-31T11:06:51;100569.06;;;5.40;100.00
40073;BME280;25774;52.256;9.356;2023-01-31T11:09:17;100536.09;;;5.06;100.00
40073;BME280;25774;52.256;9.356;2023-01-31T11:11:54;100553.41;;;5.39;100.00
40073;BME280;25774;52.256;9.356;2023-01-31T11:14:20;100554.56;;;5.30;100.00
40073;BME280;25774;52.256;9.356;2023-01-31T11:16:46;100545.03;;;5.27;100.00
40073;BME280;25774;52.256;9.356;2023-01-31T11:19:30;100542.34;;;5.30;100.00
40073;BME280;25774;52.256;9.356;2023-01-31T11:21:58;100526.94;;;5.48;100.00
40073;BME280;25774;52.256;9.356;2023-01-31T11:24:24;100515.31;;;5.30;100.00
40073;BME280;25774;52.256;9.356;2023-01-31T11:26:58;100505.75;;;5.55;100.00
40073;BME280;25774;52.256;9.356;2023-01-31T11:29:33;100503.28;;;5.51;100.00
40073;BME280;25774;52.256;9.356;2023-01-31T11:32:03;100492.34;;;5.38;100.00
40073;BME280;25774;52.256;9.356;2023-01-31T11:34:30;100501.25;;;5.32;100.00
40073;BME280;25774;52.256;9.356;2023-01-31T11:37:15;100506.44;;;5.34;100.00
40073;BME280;25774;52.256;9.356;2023-01-31T11:39:54;100496.34;;;5.50;100.00
40073;BME280;25774;52.256;9.356;2023-01-31T11:42:20;100500.00;;;5.44;100.00
40073;BME280;25774;52.256;9.356;2023-01-31T11:45:02;100511.47;;;5.67;100.00
40073;BME280;25774;52.256;9.356;2023-01-31T11:47:50;100511.75;;;5.59;100.00
40073;BME280;25774;52.256;9.356;2023-01-31T11:52:59;100509.72;;;5.41;100.00
40073;BME280;25774;52.256;9.356;2023-01-31T11:55:26;100497.19;;;5.24;100.00
40073;BME280;25774;52.256;9.356;2023-01-31T11:57:57;100480.00;;;5.43;100.00
40073;BME280;25774;52.256;9.356;2023-01-31T12:00:24;100479.78;;;5.49;100.00
40073;BME280;25774;52.256;9.356;2023-01-31T12:02:58;100482.13;;;5.57;100.00
40073;BME280;25774;52.256;9.356;2023-01-31T12:05:32;100460.91;;;5.40;100.00
40073;BME280;25774;52.256;9.356;2023-01-31T12:08:01;100442.59;;;5.40;100.00
40073;BME280;25774;52.256;9.356;2023-01-31T12:10:41;100447.28;;;5.55;100.00
40073;BME280;25774;52.256;9.356;2023-01-31T12:13:15;100455.47;;;5.71;100.00
40073;BME280;25774;52.256;9.356;2023-01-31T12:15:49;100434.28;;;5.53;100.00
40073;BME280;25774;52.256;9.356;2023-01-31T12:18:27;100447.00;;;5.89;100.00
40073;BME280;25774;52.256;9.356;2023-01-31T12:23:53;100429.06;;;5.52;100.00
40073;BME280;25774;52.256;9.356;2023-01-31T12:26:38;100427.44;;;5.49;100.00
40073;BME280;25774;52.256;9.356;2023-01-31T12:37:34;100423.63;;;5.33;100.00
40073;BME280;25774;52.256;9.356;2023-01-31T12:40:21;100426.91;;;5.40;100.00
40073;BME280;25774;52.256;9.356;2023-01-31T12:43:01;100439.34;;;5.33;100.00
40073;BME280;25774;52.256;9.356;2023-01-31T12:45:37;100449.47;;;5.42;100.00
40073;BME280;25774;52.256;9.356;2023-01-31T12:48:47;100451.78;;;5.51;100.00
40073;BME280;25774;52.256;9.356;2023-01-31T12:54:05;100462.97;;;5.30;100.00
40073;BME280;25774;52.256;9.356;2023-01-31T12:56:50;100461.13;;;5.33;100.00
40073;BME280;25774;52.256;9.356;2023-01-31T13:04:51;100486.06;;;5.44;100.00
40073;BME280;25774;52.256;9.356;2023-01-31T13:07:31;100492.19;;;5.16;100.00
40073;BME280;25774;52.256;9.356;2023-01-31T13:10:00;100500.19;;;5.11;100.00
40073;BME280;25774;52.256;9.356;2023-01-31T13:12:30;100511.91;;;5.26;100.00
40073;BME280;25774;52.256;9.356;2023-01-31T13:15:09;100507.75;;;5.21;100.00
40073;BME280;25774;52.256;9.356;2023-01-31T13:17:39;100520.75;;;5.24;100.00
40073;BME280;25774;52.256;9.356;2023-01-31T13:20:33;100530.84;;;5.34;100.00
40073;BME280;25774;52.256;9.356;2023-01-31T13:23:04;100534.75;;;5.49;100.00
40073;BME280;25774;52.256;9.356;2023-01-31T13:25:37;100525.91;;;5.25;100.00
40073;BME280;25774;52.256;9.356;2023-01-31T13:30:42;100537.97;;;5.29;100.00
40073;BME280;25774;52.256;9.356;2023-01-31T13:33:20;100540.41;;;5.35;100.00
40073;BME280;25774;52.256;9.356;2023-01-31T13:36:05;100551.97;;;5.28;100.00
40073;BME280;25774;52.256;9.356;2023-01-31T13:38:41;100559.09;;;5.51;100.00
40073;BME280;25774;52.256;9.356;2023-01-31T13:41:16;100569.84;;;5.70;100.00
40073;BME280;25774;52.256;9.356;2023-01-31T13:43:43;100548.66;;;5.23;100.00
40073;BME280;25774;52.256;9.356;2023-01-31T13:46:09;100552.25;;;5.47;100.00
40073;BME280;25774;52.256;9.356;2023-01-31T13:48:41;100540.84;;;5.22;100.00
40073;BME280;25774;52.256;9.356;2023-01-31T13:51:16;100541.78;;;5.47;100.00
40073;BME280;25774;52.256;9.356;2023-01-31T13:56:36;100536.91;;;5.36;100.00
40073;BME280;25774;52.256;9.356;2023-01-31T13:59:06;100537.19;;;5.55;100.00
40073;BME280;25774;52.256;9.356;2023-01-31T14:01:47;100518.59;;;5.36;100.00
40073;BME280;25774;52.256;9.356;2023-01-31T14:09:30;100550.50;;;5.48;100.00
40073;BME280;25774;52.256;9.356;2023-01-31T14:12:42;100545.31;;;5.73;100.00
40073;BME280;25774;52.256;9.356;2023-01-31T14:14:52;100544.16;;;5.55;100.00
40073;BME280;25774;52.256;9.356;2023-01-31T14:22:29;100555.53;;;5.80;100.00
40073;BME280;25774;52.256;9.356;2023-01-31T14:25:03;100546.94;;;5.50;100.00
40073;BME280;25774;52.256;9.356;2023-01-31T14:27:36;100544.72;;;5.65;100.00
40073;BME280;25774;52.256;9.356;2023-01-31T14:32:48;100557.78;;;5.65;100.00